Time;durP1;ratioP1;P1;durP2;ratioP2;P2;SDS_P1;SDS_P2;PMS_P1;PMS_P2;Temp;Humidity;BMP_temperature;BMP_pressure;BME280_temperature;BME280_humidity;BME280_pressure;Samples;Min_cycle;Max_cycle;Signal;HPM_P1;HPM_P2
2024/01/26 00:00:47;;;;;;;15.00;4.55;;;;;;;5.30;100.00;101536.19;5217590;28;20033;-74
2024/01/26 00:03:18;;;;;;;18.77;4.40;;;;;;;5.55;100.00;101538.81;5220253;28;20386;-74
2024/01/26 00:05:48;;;;;;;20.90;4.35;;;;;;;5.57;100.00;101537.06;5218648;28;20098;-74
2024/01/26 00:08:18;;;;;;;14.82;4.78;;;;;;;5.58;100.00;101528.41;5212391;28;20021;-75
2024/01/26 00:10:48;;;;;;;16.48;4.68;;;;;;;5.57;100.00;101526.69;5218047;28;20504;-75
2024/01/26 00:13:19;;;;;;;18.52;4.43;;;;;;;5.57;100.00;101516.31;5217827;28;20025;-74
2024/01/26 00:15:50;;;;;;;12.93;4.03;;;;;;;5.51;100.00;101517.19;5209686;28;20021;-74
2024/01/26 00:18:20;;;;;;;16.88;4.45;;;;;;;5.47;100.00;101522.34;5217583;28;20295;-74
2024/01/26 00:20:50;;;;;;;16.75;4.30;;;;;;;5.48;100.00;101514.59;5220319;28;20115;-75
2024/01/26 00:23:21;;;;;;;16.58;4.80;;;;;;;5.64;100.00;101513.72;5219190;28;20021;-75
2024/01/26 00:25:51;;;;;;;18.90;5.22;;;;;;;5.45;100.00;101506.81;5218423;28;20107;-74
2024/01/26 00:28:21;;;;;;;16.70;4.55;;;;;;;5.67;100.00;101507.66;5218130;28;20633;-75
2024/01/26 00:30:51;;;;;;;14.10;4.57;;;;;;;5.65;100.00;101510.28;5216821;28;20103;-75
2024/01/26 00:33:22;;;;;;;19.45;5.10;;;;;;;5.71;100.00;101504.22;5214835;28;20422;-74
2024/01/26 00:35:52;;;;;;;15.63;3.78;;;;;;;5.82;100.00;101499.91;5218562;28;20119;-75
2024/01/26 00:38:22;;;;;;;18.42;4.32;;;;;;;5.82;100.00;101493.00;5218370;28;20603;-75
2024/01/26 00:40:53;;;;;;;18.38;4.07;;;;;;;5.59;100.00;101497.28;5216295;28;20040;-75
2024/01/26 00:43:23;;;;;;;17.05;4.45;;;;;;;5.67;100.00;101497.28;5218536;28;20517;-75
2024/01/26 00:45:53;;;;;;;18.40;4.25;;;;;;;5.63;100.00;101500.75;5206939;28;20029;-74
2024/01/26 00:48:24;;;;;;;19.35;4.60;;;;;;;5.60;100.00;101495.56;5214792;28;20033;-75
2024/01/26 00:50:55;;;;;;;18.00;4.40;;;;;;;5.47;100.00;101502.50;5217956;28;20025;-74
2024/01/26 00:53:25;;;;;;;12.60;3.70;;;;;;;5.60;100.00;101492.97;5228447;28;20032;-74
2024/01/26 00:55:55;;;;;;;16.70;4.55;;;;;;;5.72;100.00;101500.75;5229779;28;20109;-74
2024/01/26 00:58:26;;;;;;;18.38;3.67;;;;;;;5.78;100.00;101480.88;5228770;28;20029;-75
2024/01/26 01:00:56;;;;;;;18.23;3.97;;;;;;;5.85;100.00;101481.72;5222959;28;20056;-74
2024/01/26 01:03:26;;;;;;;15.02;4.10;;;;;;;5.89;100.00;101480.88;5211403;28;20036;-74
2024/01/26 01:05:57;;;;;;;18.73;4.30;;;;;;;5.89;100.00;101491.25;5223134;28;20021;-75
2024/01/26 01:08:27;;;;;;;15.43;3.67;;;;;;;5.80;100.00;101489.53;5222067;28;20371;-74
2024/01/26 01:10:57;;;;;;;20.85;4.70;;;;;;;5.80;100.00;101488.66;5208935;28;20654;-74
2024/01/26 01:13:28;;;;;;;19.58;3.97;;;;;;;5.97;100.00;101482.59;5212758;28;20083;-74
2024/01/26 01:16:00;;;;;;;20.08;4.40;;;;;;;5.91;100.00;101489.50;5206416;28;20111;-74
2024/01/26 01:18:30;;;;;;;19.13;3.75;;;;;;;5.92;100.00;101486.91;5216682;28;20039;-75
2024/01/26 01:21:01;;;;;;;22.05;4.00;;;;;;;5.97;100.00;101473.94;5222316;28;20032;-75
2024/01/26 01:23:31;;;;;;;15.25;3.50;;;;;;;6.05;100.00;101465.25;5218312;28;20029;-75
2024/01/26 01:26:01;;;;;;;18.23;4.32;;;;;;;6.10;100.00;101468.69;5217833;28;20047;-75
2024/01/26 01:28:32;;;;;;;20.45;5.15;;;;;;;6.06;100.00;101471.31;5221050;28;20498;-74
2024/01/26 01:31:02;;;;;;;27.05;5.45;;;;;;;5.97;100.00;101461.84;5208240;28;20035;-75
2024/01/26 01:33:32;;;;;;;19.38;4.13;;;;;;;6.04;100.00;101458.34;5214379;28;20406;-75
2024/01/26 01:36:03;;;;;;;22.55;4.00;;;;;;;6.07;100.00;101457.47;5214920;28;20321;-74
2024/01/26 01:38:33;;;;;;;15.00;3.47;;;;;;;6.19;100.00;101457.41;5221898;28;20506;-74
2024/01/26 01:41:03;;;;;;;17.63;3.78;;;;;;;6.14;100.00;101465.25;5224249;28;20028;-75
2024/01/26 01:43:34;;;;;;;20.33;4.22;;;;;;;6.18;100.00;101455.69;5221054;28;20339;-75
2024/01/26 01:46:04;;;;;;;15.73;3.30;;;;;;;6.23;100.00;101453.97;5213336;28;20013;-73
2024/01/26 01:48:35;;;;;;;18.45;3.90;;;;;;;6.28;100.00;101450.44;5222346;28;20433;-74
2024/01/26 01:51:05;;;;;;;24.65;4.20;;;;;;;6.37;100.00;101445.22;5217239;28;20530;-74
2024/01/26 01:53:37;;;;;;;18.65;3.75;;;;;;;6.30;100.00;101447.84;5219645;28;20119;-74
2024/01/26 01:56:10;;;;;;;19.10;3.50;;;;;;;6.34;100.00;101441.78;5227944;28;20116;-74
2024/01/26 01:58:41;;;;;;;15.52;3.80;;;;;;;6.30;100.00;101455.66;5225120;28;20033;-74
2024/01/26 02:01:11;;;;;;;18.60;3.90;;;;;;;6.41;100.00;101441.75;5222046;28;20029;-74
2024/01/26 02:03:42;;;;;;;15.13;3.35;;;;;;;6.38;100.00;101446.06;5227403;28;20029;-73
2024/01/26 02:06:12;;;;;;;11.75;3.60;;;;;;;6.48;100.00;101437.38;5214384;28;20603;-74
2024/01/26 02:08:42;;;;;;;18.38;4.07;;;;;;;6.44;100.00;101443.47;5218420;28;20032;-74
2024/01/26 02:11:13;;;;;;;16.05;3.78;;;;;;;6.42;100.00;101440.03;5217969;28;20025;-75
2024/01/26 02:13:43;;;;;;;18.67;3.50;;;;;;;6.42;100.00;101435.69;5217003;28;20033;-72
2024/01/26 02:16:13;;;;;;;17.02;3.65;;;;;;;6.41;100.00;101427.91;5211429;28;20024;-74
2024/01/26 02:18:43;;;;;;;17.85;3.67;;;;;;;6.35;100.00;101427.94;5222202;28;20040;-74
2024/01/26 02:21:14;;;;;;;18.13;3.47;;;;;;;6.28;100.00;101431.44;5219367;28;20390;-75
2024/01/26 02:23:44;;;;;;;15.27;3.25;;;;;;;6.35;100.00;101422.72;5222628;28;20028;-74
2024/01/26 02:26:14;;;;;;;18.85;4.28;;;;;;;6.40;100.00;101436.56;5220374;28;20069;-75
2024/01/26 02:28:45;;;;;;;17.90;3.63;;;;;;;6.26;100.00;101435.78;5220592;28;20056;-75
2024/01/26 02:31:15;;;;;;;16.90;4.20;;;;;;;6.29;100.00;101430.56;5214724;28;20029;-75
2024/01/26 02:33:45;;;;;;;21.63;3.88;;;;;;;6.30;100.00;101416.72;5222034;28;20032;-75
2024/01/26 02:36:16;;;;;;;13.95;3.75;;;;;;;6.39;100.00;101414.09;5217805;28;20037;-75
2024/01/26 02:38:46;;;;;;;15.90;3.97;;;;;;;6.43;100.00;101411.44;5223215;28;20037;-74
2024/01/26 02:41:16;;;;;;;22.25;3.83;;;;;;;6.38;100.00;101408.00;5229038;28;20485;-75
2024/01/26 02:43:47;;;;;;;19.58;4.45;;;;;;;6.45;100.00;101414.03;5225019;28;20128;-75
2024/01/26 02:46:17;;;;;;;29.08;4.43;;;;;;;6.43;100.00;101410.59;5217169;28;20025;-74
2024/01/26 02:48:48;;;;;;;14.35;3.72;;;;;;;6.46;100.00;101401.03;5219148;28;20427;-75
2024/01/26 02:51:18;;;;;;;21.98;4.80;;;;;;;6.48;100.00;101408.81;5227376;28;20482;-75
2024/01/26 02:53:48;;;;;;;16.60;3.55;;;;;;;6.63;100.00;101398.34;5221023;28;20067;-75
2024/01/26 02:56:18;;;;;;;16.42;3.85;;;;;;;6.69;100.00;101390.50;5221414;28;20016;-75
2024/01/26 02:58:49;;;;;;;16.50;4.07;;;;;;;6.57;100.00;101390.59;5226827;28;20379;-75
2024/01/26 03:01:19;;;;;;;14.88;3.67;;;;;;;6.51;100.00;101383.72;5211592;28;20410;-75
2024/01/26 03:03:49;;;;;;;17.27;3.70;;;;;;;6.54;100.00;101383.69;5217125;28;20055;-75
2024/01/26 03:06:20;;;;;;;17.63;4.10;;;;;;;6.50;100.00;101375.91;5222325;28;20091;-75
2024/01/26 03:08:50;;;;;;;27.25;4.15;;;;;;;6.46;100.00;101374.22;5222339;28;20055;-75
2024/01/26 03:11:21;;;;;;;15.30;3.78;;;;;;;6.57;100.00;101362.88;5218170;28;20021;-75
2024/01/26 03:13:51;;;;;;;18.42;3.70;;;;;;;6.54;100.00;101362.91;5217883;28;20044;-75
2024/01/26 03:16:21;;;;;;;19.52;4.22;;;;;;;6.65;100.00;101355.94;5208914;28;20230;-74
2024/01/26 03:18:52;;;;;;;21.17;4.38;;;;;;;6.67;100.00;101361.97;5220689;28;20275;-75
2024/01/26 03:21:22;;;;;;;16.63;4.18;;;;;;;6.67;100.00;101363.69;5217736;28;20410;-75
2024/01/26 03:23:52;;;;;;;13.95;3.58;;;;;;;6.63;100.00;101354.19;5218151;28;20025;-75
2024/01/26 03:26:23;;;;;;;16.42;3.85;;;;;;;6.66;100.00;101352.44;5218727;28;20059;-75
2024/01/26 03:28:53;;;;;;;14.13;3.50;;;;;;;6.65;100.00;101358.53;5221671;28;20033;-75
2024/01/26 03:31:24;;;;;;;17.70;3.65;;;;;;;6.58;100.00;101353.38;5221764;28;20605;-75
2024/01/26 03:33:54;;;;;;;21.13;4.40;;;;;;;6.53;100.00;101355.13;5216257;28;20029;-74
2024/01/26 03:36:24;;;;;;;20.95;4.70;;;;;;;6.44;100.00;101350.00;5217500;28;20032;-75
2024/01/26 03:38:55;;;;;;;22.85;3.88;;;;;;;6.46;100.00;101353.44;5222206;28;20071;-75
2024/01/26 03:41:25;;;;;;;19.45;3.63;;;;;;;6.48;100.00;101349.09;5222210;28;20031;-75
2024/01/26 03:43:55;;;;;;;13.32;3.45;;;;;;;6.36;100.00;101352.66;5222882;28;20033;-75
2024/01/26 03:46:25;;;;;;;17.45;3.38;;;;;;;6.39;100.00;101352.63;5216744;28;20074;-73
2024/01/26 03:48:56;;;;;;;15.25;3.60;;;;;;;6.32;100.00;101350.06;5213348;28;20035;-75
2024/01/26 03:51:26;;;;;;;22.25;4.15;;;;;;;6.31;100.00;101341.44;5216829;28;20536;-75
2024/01/26 03:53:59;;;;;;;15.18;4.07;;;;;;;6.33;100.00;101331.03;5217520;28;20029;-75
2024/01/26 03:56:29;;;;;;;17.80;3.60;;;;;;;6.38;100.00;101329.25;5217209;28;20024;-75
2024/01/26 03:58:59;;;;;;;15.07;3.38;;;;;;;6.32;100.00;101329.31;5220597;28;20071;-75
2024/01/26 04:01:30;;;;;;;15.75;4.00;;;;;;;6.33;100.00;101326.72;5218668;28;20099;-74
2024/01/26 04:04:00;;;;;;;18.55;3.85;;;;;;;6.31;100.00;101328.47;5248896;23;20045;-72
2024/01/26 04:06:31;;;;;;;17.50;4.28;;;;;;;6.37;100.00;101331.00;5235475;28;20485;-74
2024/01/26 04:09:01;;;;;;;22.13;4.43;;;;;;;6.33;100.00;101326.72;5238036;28;20743;-74
2024/01/26 04:11:31;;;;;;;18.70;3.85;;;;;;;6.32;100.00;101324.13;5239697;28;20031;-73
2024/01/26 04:14:02;;;;;;;22.02;4.25;;;;;;;6.35;100.00;101311.13;5253956;28;20031;-74
2024/01/26 04:16:32;;;;;;;26.45;3.90;;;;;;;6.30;100.00;101311.16;5259835;28;20039;-74
2024/01/26 04:19:02;;;;;;;16.77;4.45;;;;;;;6.27;100.00;101310.31;5259096;28;20072;-74
2024/01/26 04:21:33;;;;;;;14.70;3.80;;;;;;;6.35;100.00;101300.72;5245555;28;20027;-74
2024/01/26 04:24:03;;;;;;;16.00;4.20;;;;;;;6.37;100.00;101304.16;5255494;28;20024;-75
2024/01/26 04:26:34;;;;;;;17.00;3.90;;;;;;;6.39;100.00;101299.88;5255102;28;20389;-74
2024/01/26 04:29:04;;;;;;;14.20;3.42;;;;;;;6.36;100.00;101305.03;5258647;28;20040;-74
2024/01/26 04:31:40;;;;;;;17.85;3.85;;;;;;;6.32;100.00;101298.16;5241937;28;20024;-72
2024/01/26 04:34:11;;;;;;;16.98;3.85;;;;;;;6.27;100.00;101298.19;5244423;28;20036;-72
2024/01/26 04:36:47;;;;;;;16.15;3.83;;;;;;;6.29;100.00;101299.03;5258384;28;20035;-74
2024/01/26 04:39:17;;;;;;;21.40;3.85;;;;;;;6.29;100.00;101283.47;5258076;28;20101;-73
2024/01/26 04:41:48;;;;;;;17.33;4.25;;;;;;;6.36;100.00;101273.91;5261218;28;20031;-73
2024/01/26 04:44:18;;;;;;;16.55;3.80;;;;;;;6.35;100.00;101267.00;5248209;28;20024;-75
2024/01/26 04:46:48;;;;;;;19.20;5.78;;;;;;;6.31;100.00;101271.38;5249656;28;20020;-73
2024/01/26 04:49:19;;;;;;;16.02;3.88;;;;;;;6.32;100.00;101272.22;5251585;28;20031;-73
2024/01/26 04:51:49;;;;;;;16.83;3.63;;;;;;;6.35;100.00;101277.38;5256824;28;20028;-74
2024/01/26 04:54:19;;;;;;;19.25;4.47;;;;;;;6.23;100.00;101272.28;5257013;28;20032;-74
2024/01/26 04:56:49;;;;;;;15.50;3.78;;;;;;;6.20;100.00;101267.97;5259318;28;20558;-73
2024/01/26 04:59:20;;;;;;;20.05;3.97;;;;;;;6.32;100.00;101273.09;5258233;28;20039;-74
2024/01/26 05:01:51;;;;;;;23.27;5.07;;;;;;;6.29;100.00;101272.22;5258171;28;20662;-74
2024/01/26 05:04:21;;;;;;;18.65;4.18;;;;;;;6.37;100.00;101268.72;5249060;28;20020;-74
2024/01/26 05:06:51;;;;;;;15.10;3.80;;;;;;;6.37;100.00;101260.03;5257233;28;20719;-74
2024/01/26 05:09:22;;;;;;;15.98;3.55;;;;;;;6.25;100.00;101257.56;5258083;28;20031;-74
2024/01/26 05:11:53;;;;;;;16.67;4.57;;;;;;;6.29;100.00;101251.47;5260131;28;20402;-74
2024/01/26 05:14:23;;;;;;;17.85;4.40;;;;;;;6.31;100.00;101247.13;5247947;28;20032;-74
2024/01/26 05:16:53;;;;;;;17.92;3.83;;;;;;;6.38;100.00;101249.66;5255335;28;20132;-73
2024/01/26 05:19:23;;;;;;;19.55;4.15;;;;;;;6.37;100.00;101260.91;5259318;28;20032;-74
2024/01/26 05:21:54;;;;;;;22.42;4.10;;;;;;;6.43;100.00;101254.81;5261960;28;20074;-73
2024/01/26 05:24:24;;;;;;;14.52;3.97;;;;;;;6.32;100.00;101251.44;5258159;28;20024;-73
2024/01/26 05:26:55;;;;;;;18.50;4.18;;;;;;;6.43;100.00;101241.84;5266041;28;20024;-74
2024/01/26 05:29:25;;;;;;;24.77;4.80;;;;;;;6.34;100.00;101245.38;5260010;28;20128;-73
2024/01/26 05:31:55;;;;;;;19.75;3.78;;;;;;;6.32;100.00;101231.56;5260983;28;20034;-73
2024/01/26 05:34:26;;;;;;;14.20;4.10;;;;;;;6.35;100.00;101234.13;5251374;28;20024;-74
2024/01/26 05:36:56;;;;;;;18.15;4.30;;;;;;;6.34;100.00;101229.81;5262155;28;20110;-72
2024/01/26 05:39:29;;;;;;;25.83;3.72;;;;;;;6.42;100.00;101217.59;5262480;28;20404;-73
2024/01/26 05:42:00;;;;;;;13.20;3.88;;;;;;;6.39;100.00;101214.19;5260330;28;20024;-74
2024/01/26 05:44:30;;;;;;;18.30;4.10;;;;;;;6.40;100.00;101208.97;5248628;28;20675;-73
2024/01/26 05:47:01;;;;;;;20.80;4.30;;;;;;;6.44;100.00;101212.41;5260030;28;20075;-74
2024/01/26 05:49:33;;;;;;;17.02;3.90;;;;;;;6.42;100.00;101206.38;5262551;28;20028;-75
2024/01/26 05:52:03;;;;;;;18.88;4.13;;;;;;;6.41;100.00;101200.31;5258693;28;20046;-73
2024/01/26 05:54:34;;;;;;;16.48;4.05;;;;;;;6.41;100.00;101196.88;5261334;28;20032;-73
2024/01/26 05:57:04;;;;;;;21.05;4.68;;;;;;;6.37;100.00;101188.25;5261313;28;20054;-74
2024/01/26 05:59:37;;;;;;;16.92;3.80;;;;;;;6.36;100.00;101180.44;5247117;28;20112;-75
2024/01/26 06:02:07;;;;;;;11.85;3.70;;;;;;;6.46;100.00;101179.50;5259501;28;20024;-75
2024/01/26 06:04:37;;;;;;;19.25;4.13;;;;;;;6.47;100.00;101173.44;5258155;28;20489;-73
2024/01/26 06:07:08;;;;;;;17.38;3.90;;;;;;;6.49;100.00;101174.28;5260672;28;20028;-73
2024/01/26 06:09:39;;;;;;;23.60;4.57;;;;;;;6.48;100.00;101172.56;5261973;28;20024;-73
2024/01/26 06:12:10;;;;;;;19.00;4.68;;;;;;;6.41;100.00;101163.97;5261418;28;20021;-73
2024/01/26 06:14:40;;;;;;;17.20;4.15;;;;;;;6.44;100.00;101153.53;5251014;28;20025;-74
2024/01/26 06:17:10;;;;;;;11.02;3.67;;;;;;;6.47;100.00;101147.47;5255516;28;20467;-72
2024/01/26 06:19:40;;;;;;;15.05;3.95;;;;;;;6.38;100.00;101139.75;5258208;28;20036;-74
2024/01/26 06:22:11;;;;;;;15.23;3.72;;;;;;;6.40;100.00;101135.44;5259425;28;20027;-71
2024/01/26 06:24:41;;;;;;;12.27;3.65;;;;;;;6.39;100.00;101134.56;5261625;28;20534;-74
2024/01/26 06:27:11;;;;;;;14.60;3.80;;;;;;;6.40;100.00;101138.03;5261040;28;20107;-71
2024/01/26 06:29:42;;;;;;;14.98;3.92;;;;;;;6.47;100.00;101126.72;5261687;28;20105;-74
2024/01/26 06:32:12;;;;;;;12.88;3.88;;;;;;;6.50;100.00;101113.69;5262058;28;20024;-73
2024/01/26 06:34:43;;;;;;;14.07;3.85;;;;;;;6.51;100.00;101103.31;5263397;28;20404;-74
2024/01/26 06:37:13;;;;;;;13.45;3.40;;;;;;;6.50;100.00;101093.78;5261165;28;20028;-71
2024/01/26 06:39:43;;;;;;;21.35;4.60;;;;;;;6.43;100.00;101104.25;5263005;28;20023;-74
2024/01/26 06:42:14;;;;;;;12.90;3.75;;;;;;;6.41;100.00;101100.81;5264167;28;20081;-75
2024/01/26 06:44:44;;;;;;;16.92;3.85;;;;;;;6.34;100.00;101101.75;5269304;28;20020;-75
2024/01/26 06:47:14;;;;;;;15.23;4.30;;;;;;;6.19;100.00;101105.34;5265307;28;20024;-72
2024/01/26 06:49:44;;;;;;;15.00;4.25;;;;;;;6.28;100.00;101105.25;5262819;28;20039;-74
2024/01/26 06:52:15;;;;;;;11.25;3.35;;;;;;;6.34;100.00;101102.63;5261955;28;20568;-72
2024/01/26 06:54:45;;;;;;;10.45;3.70;;;;;;;6.31;100.00;101094.88;5263413;28;20134;-71
2024/01/26 06:57:15;;;;;;;12.70;3.63;;;;;;;6.33;100.00;101100.91;5265248;28;20059;-74
2024/01/26 06:59:46;;;;;;;14.60;3.65;;;;;;;6.45;100.00;101102.50;5260380;28;20097;-74
2024/01/26 07:02:16;;;;;;;18.58;4.25;;;;;;;6.42;100.00;101099.94;5261205;28;20063;-74
2024/01/26 07:04:47;;;;;;;12.27;4.28;;;;;;;6.35;100.00;101106.06;5263553;28;20028;-73
2024/01/26 07:07:17;;;;;;;14.45;4.03;;;;;;;6.42;100.00;101107.72;5260765;28;20116;-73
2024/01/26 07:09:47;;;;;;;16.30;4.03;;;;;;;6.48;100.00;101102.47;5262206;28;20028;-74
2024/01/26 07:12:17;;;;;;;12.25;3.67;;;;;;;6.49;100.00;101110.25;5259483;28;20028;-74
2024/01/26 07:14:48;;;;;;;16.13;4.40;;;;;;;6.60;100.00;101102.34;5258881;28;20032;-75
2024/01/26 07:17:18;;;;;;;10.13;3.17;;;;;;;6.59;100.00;101116.19;5260778;28;20023;-75
2024/01/26 07:19:49;;;;;;;9.20;3.28;;;;;;;6.73;100.00;101102.19;5261433;28;20261;-74
2024/01/26 07:22:19;;;;;;;12.60;3.70;;;;;;;6.81;100.00;101102.97;5259643;28;20028;-74
2024/01/26 07:24:49;;;;;;;13.02;3.40;;;;;;;6.83;100.00;101101.19;5261594;28;20133;-74
2024/01/26 07:27:20;;;;;;;7.47;3.17;;;;;;;6.93;100.00;101096.75;5260334;28;20106;-74
2024/01/26 07:29:51;;;;;;;13.02;3.83;;;;;;;6.94;100.00;101094.13;5262022;28;20217;-74
2024/01/26 07:32:21;;;;;;;9.68;3.30;;;;;;;6.92;100.00;101106.25;5260717;28;20027;-74
2024/01/26 07:34:51;;;;;;;10.60;3.45;;;;;;;7.04;100.00;101100.06;5260516;28;20035;-74
2024/01/26 07:37:21;;;;;;;9.80;3.17;;;;;;;7.07;100.00;101090.50;5261353;28;20028;-74
2024/01/26 07:39:52;;;;;;;8.30;2.95;;;;;;;7.10;100.00;101079.19;5260786;28;20028;-74
2024/01/26 07:42:22;;;;;;;11.25;3.60;;;;;;;7.06;100.00;101072.31;5259867;28;20527;-75
2024/01/26 07:44:52;;;;;;;9.73;3.53;;;;;;;7.18;100.00;101069.53;5259922;28;20154;-75
2024/01/26 07:47:23;;;;;;;9.75;3.35;;;;;;;7.11;100.00;101060.13;5260341;28;20076;-72
2024/01/26 07:49:53;;;;;;;8.70;3.15;;;;;;;7.16;100.00;101059.19;5260538;28;20401;-75
2024/01/26 07:52:24;;;;;;;11.80;3.20;;;;;;;7.16;100.00;101053.13;5260850;28;20020;-76
2024/01/26 07:54:54;;;;;;;10.75;3.15;;;;;;;7.22;100.00;101046.94;5258969;28;20024;-75
2024/01/26 07:57:26;;;;;;;10.73;3.80;;;;;;;7.24;100.00;101041.72;5259157;28;20405;-75
2024/01/26 07:59:57;;;;;;;7.28;3.45;;;;;;;7.37;100.00;101033.72;5260265;28;20500;-75
2024/01/26 08:02:27;;;;;;;13.40;4.05;;;;;;;7.88;100.00;101014.66;5260582;28;20028;-74
2024/01/26 08:04:57;;;;;;;17.02;3.92;;;;;;;8.15;100.00;101013.28;5260473;28;20019;-72
2024/01/26 08:07:27;;;;;;;6.50;3.65;;;;;;;8.33;100.00;101003.44;5260016;28;20042;-75
2024/01/26 08:09:58;;;;;;;7.80;3.60;;;;;;;8.55;100.00;100999.50;5258740;28;20035;-74
2024/01/26 08:12:29;;;;;;;9.02;3.88;;;;;;;8.65;100.00;100997.53;5257731;28;20024;-74
2024/01/26 08:14:59;;;;;;;7.75;3.92;;;;;;;8.79;100.00;100990.31;5260995;28;20032;-75
2024/01/26 08:17:29;;;;;;;10.40;4.13;;;;;;;8.84;100.00;100988.44;5260734;28;20971;-74
2024/01/26 08:20:03;;;;;;;9.18;4.25;;;;;;;8.92;100.00;100981.31;5261703;28;20036;-75
2024/01/26 08:22:33;;;;;;;9.20;4.15;;;;;;;9.01;100.00;100971.56;5258787;28;20036;-74
2024/01/26 08:25:04;;;;;;;7.13;3.60;;;;;;;9.04;100.00;100968.03;5258934;28;20099;-74
2024/01/26 08:27:34;;;;;;;7.60;3.45;;;;;;;9.13;100.00;100961.69;5259914;28;20104;-75
2024/01/26 08:30:05;;;;;;;7.07;3.38;;;;;;;9.30;100.00;100949.09;5261336;28;20388;-74
2024/01/26 08:32:35;;;;;;;9.48;3.80;;;;;;;9.48;100.00;100927.78;5261070;28;20087;-74
2024/01/26 08:35:09;;;;;;;8.88;3.30;;;;;;;9.38;100.00;100935.88;5270282;28;20411;-75
2024/01/26 08:37:39;;;;;;;7.45;3.35;;;;;;;9.41;100.00;100925.34;5262355;28;20437;-74
2024/01/26 08:40:10;;;;;;;7.63;2.72;;;;;;;9.46;100.00;100923.50;5260218;28;20087;-74
2024/01/26 08:42:40;;;;;;;8.07;3.28;;;;;;;9.68;100.00;100919.44;5259279;28;20130;-75
2024/01/26 08:45:10;;;;;;;7.35;2.85;;;;;;;9.58;100.00;100907.53;5259514;28;20027;-72
2024/01/26 08:47:41;;;;;;;6.82;3.20;;;;;;;9.75;100.00;100895.75;5258687;28;20032;-74
2024/01/26 08:50:11;;;;;;;6.00;2.97;;;;;;;9.86;100.00;100895.44;5258895;28;20051;-72
2024/01/26 08:52:41;;;;;;;5.78;3.00;;;;;;;9.89;100.00;100903.19;5259312;28;20024;-74
2024/01/26 08:55:12;;;;;;;4.55;2.72;;;;;;;9.89;100.00;100897.97;5260669;28;20027;-74
2024/01/26 08:57:45;;;;;;;6.03;2.40;;;;;;;9.91;100.00;100888.34;5260654;28;20024;-76
2024/01/26 09:00:16;;;;;;;8.93;2.70;;;;;;;9.92;100.00;100897.88;5260227;28;20031;-75
2024/01/26 09:02:47;;;;;;;5.75;2.70;;;;;;;9.88;100.00;100886.69;5260055;28;20028;-72
2024/01/26 09:05:17;;;;;;;5.45;2.30;;;;;;;10.03;100.00;100882.81;5255407;28;20028;-71
2024/01/26 09:07:48;;;;;;;7.75;2.47;;;;;;;10.06;100.00;100869.66;5259472;28;20035;-75
2024/01/26 09:10:19;;;;;;;5.32;2.22;;;;;;;10.02;100.00;100873.28;5257875;28;20023;-73
2024/01/26 09:12:49;;;;;;;4.28;2.33;;;;;;;10.06;100.00;100864.44;5260691;28;20036;-76
2024/01/26 09:15:20;;;;;;;3.15;1.80;;;;;;;10.10;100.00;100850.41;5259031;28;20035;-74
2024/01/26 09:17:50;;;;;;;4.20;2.28;;;;;;;10.20;100.00;100836.19;5260563;28;20397;-75
2024/01/26 09:20:20;;;;;;;3.80;1.70;;;;;;;10.26;100.00;100841.22;5259849;28;20035;-75
2024/01/26 09:22:50;;;;;;;5.05;1.80;;;;;;;10.33;100.00;100843.59;5236531;28;20462;-75
2024/01/26 09:25:21;;;;;;;3.47;1.60;;;;;;;10.29;100.00;100841.09;5258243;28;20024;-75
2024/01/26 09:27:51;;;;;;;3.10;1.90;;;;;;;10.26;100.00;100841.22;5259635;28;20096;-75
2024/01/26 09:30:22;;;;;;;3.00;1.83;;;;;;;10.32;100.00;100838.44;5259343;28;20028;-75
2024/01/26 09:32:52;;;;;;;3.80;2.22;;;;;;;10.34;100.00;100828.78;5258804;28;20484;-75
2024/01/26 09:35:23;;;;;;;5.25;2.15;;;;;;;10.37;100.00;100833.91;5258648;28;20420;-75
2024/01/26 09:37:53;;;;;;;5.72;2.00;;;;;;;10.29;100.00;100835.88;5258912;28;20120;-74
2024/01/26 09:40:24;;;;;;;4.65;2.00;;;;;;;10.27;100.00;100824.63;5258625;28;20046;-75
2024/01/26 09:42:54;;;;;;;3.83;1.60;;;;;;;10.34;100.00;100823.56;5260654;28;20506;-74
2024/01/26 09:45:25;;;;;;;4.25;2.10;;;;;;;10.21;100.00;100823.09;5260920;28;20024;-74
2024/01/26 09:47:57;;;;;;;2.92;1.88;;;;;;;10.20;100.00;100820.50;5260702;28;20024;-75
2024/01/26 09:50:28;;;;;;;4.45;1.80;;;;;;;10.14;100.00;100821.53;5257614;28;20047;-74
2024/01/26 09:52:59;;;;;;;5.80;1.80;;;;;;;10.08;100.00;100815.63;5258408;28;20485;-75
2024/01/26 09:55:32;;;;;;;4.28;2.20;;;;;;;10.15;100.00;100809.34;5258668;28;20024;-74
2024/01/26 09:58:03;;;;;;;4.07;1.95;;;;;;;10.06;100.00;100812.22;5264176;28;20040;-74
2024/01/26 10:00:33;;;;;;;8.93;2.40;;;;;;;10.05;100.00;100810.50;5256489;28;20066;-75
2024/01/26 10:03:04;;;;;;;5.53;2.50;;;;;;;9.97;100.00;100807.25;5275866;22;20032;-77
2024/01/26 10:05:36;;;;;;;4.35;2.50;;;;;;;9.91;100.00;100803.06;5209360;28;20075;-74
2024/01/26 10:08:08;;;;;;;6.55;2.78;;;;;;;10.02;100.00;100797.56;5218370;28;20059;-74
2024/01/26 10:10:39;;;;;;;7.68;2.90;;;;;;;9.96;100.00;100795.09;5213318;28;20083;-74
2024/01/26 10:13:10;;;;;;;3.97;2.42;;;;;;;10.02;100.00;100789.72;5216674;28;20029;-74
2024/01/26 10:15:40;;;;;;;5.55;2.70;;;;;;;9.99;100.00;100790.63;5200909;28;20037;-74
2024/01/26 10:18:10;;;;;;;4.93;2.50;;;;;;;9.94;100.00;100789.03;5205702;28;20091;-74
2024/01/26 10:20:40;;;;;;;3.83;2.50;;;;;;;9.93;100.00;100782.13;5208075;28;20144;-74
2024/01/26 10:23:11;;;;;;;6.57;2.78;;;;;;;9.98;100.00;100772.41;5201955;28;20421;-74
2024/01/26 10:25:43;;;;;;;5.55;2.63;;;;;;;9.96;100.00;100769.84;5205570;28;20057;-74
2024/01/26 10:28:13;;;;;;;4.80;2.63;;;;;;;9.95;100.00;100762.03;5209751;28;20505;-74
2024/01/26 10:30:43;;;;;;;4.78;2.60;;;;;;;9.94;100.00;100760.31;5207176;28;20033;-74
2024/01/26 10:33:14;;;;;;;6.55;2.38;;;;;;;9.95;100.00;100762.03;5206542;28;20108;-73
2024/01/26 10:35:48;;;;;;;5.25;2.53;;;;;;;9.92;100.00;100751.69;5200178;28;20026;-74
2024/01/26 10:38:19;;;;;;;5.07;2.38;;;;;;;9.94;100.00;100744.66;5209419;28;20037;-73
2024/01/26 10:40:57;;;;;;;4.70;2.33;;;;;;;9.98;100.00;100738.47;5206110;28;20174;-75
2024/01/26 10:43:29;;;;;;;4.82;2.65;;;;;;;10.04;100.00;100740.91;5204284;28;20021;-74
2024/01/26 10:46:01;;;;;;;5.85;2.83;;;;;;;10.08;100.00;100734.69;5206403;28;20053;-74
2024/01/26 10:48:32;;;;;;;3.90;2.10;;;;;;;10.09;100.00;100729.44;5203776;28;20029;-74
2024/01/26 10:51:03;;;;;;;4.82;2.45;;;;;;;10.02;100.00;100716.63;5210786;28;20025;-75
2024/01/26 10:53:34;;;;;;;6.93;2.55;;;;;;;10.12;100.00;100718.88;5204383;28;20030;-74
2024/01/26 10:56:05;;;;;;;3.65;2.25;;;;;;;10.15;100.00;100712.72;5205155;28;20037;-73
2024/01/26 10:58:36;;;;;;;3.95;2.25;;;;;;;10.14;100.00;100717.06;5198710;28;20041;-74
2024/01/26 11:01:06;;;;;;;5.20;2.47;;;;;;;10.29;100.00;100705.28;5206526;28;20048;-74
2024/01/26 11:03:37;;;;;;;4.55;2.47;;;;;;;10.19;100.00;100704.72;5204741;28;20471;-74
2024/01/26 11:06:09;;;;;;;6.15;2.20;;;;;;;10.19;100.00;100693.44;5206411;28;20029;-75
2024/01/26 11:08:40;;;;;;;4.50;2.10;;;;;;;10.21;100.00;100686.41;5201562;28;20056;-74
2024/01/26 11:11:11;;;;;;;3.88;2.00;;;;;;;10.25;100.00;100685.38;5202023;28;20026;-73
2024/01/26 11:13:41;;;;;;;5.65;2.30;;;;;;;10.26;100.00;100674.03;5207988;28;20282;-75
2024/01/26 11:16:15;;;;;;;3.65;2.00;;;;;;;10.24;100.00;100671.50;5202388;28;20025;-74
2024/01/26 11:18:56;;;;;;;5.35;2.00;;;;;;;10.28;100.00;100667.00;5199498;28;20504;-74
2024/01/26 11:21:37;;;;;;;3.60;1.80;;;;;;;10.28;100.00;100662.66;5202388;28;20021;-74
2024/01/26 11:24:26;;;;;;;4.85;1.80;;;;;;;10.27;100.00;100650.50;5203074;28;20482;-74
2024/01/26 11:26:59;;;;;;;3.67;1.80;;;;;;;10.23;100.00;100653.25;5199039;28;20092;-74
2024/01/26 11:29:33;;;;;;;3.03;1.90;;;;;;;10.24;100.00;100649.72;5202361;28;20032;-74
2024/01/26 11:32:17;;;;;;;5.40;1.80;;;;;;;10.28;100.00;100659.16;5197375;28;20103;-74
2024/01/26 11:35:00;;;;;;;2.72;1.70;;;;;;;10.28;100.00;100648.72;5197619;28;20030;-74